Time;durP1;ratioP1;P1;durP2;ratioP2;P2;SDS_P1;SDS_P2;PMS_P1;PMS_P2;Temp;Humidity;BMP_temperature;BMP_pressure;BME280_temperature;BME280_humidity;BME280_pressure;Samples;Min_cycle;Max_cycle;Signal;HPM_P1;HPM_P2
2023/10/09 00:04:45;;;;;;;14.65;8.60;;;;;;;16.20;100.00;102010.03;10584821;28;20040;-72
2023/10/09 00:09:48;;;;;;;16.30;9.77;;;;;;;16.26;100.00;102004.59;10585685;28;20065;-74
2023/10/09 00:14:50;;;;;;;19.10;10.55;;;;;;;16.35;100.00;102005.22;10586437;28;20053;-74
2023/10/09 00:19:59;;;;;;;15.45;8.25;;;;;;;16.39;100.00;102009.22;10585517;28;20062;-75
2023/10/09 00:25:11;;;;;;;22.40;9.38;;;;;;;16.42;100.00;102007.97;10584070;28;20054;-72
2023/10/09 00:30:18;;;;;;;15.23;8.10;;;;;;;16.46;100.00;101999.16;10586828;28;20063;-74
2023/10/09 00:35:37;;;;;;;12.00;9.98;;;;;;;16.53;100.00;102010.09;10552467;28;20070;-73
2023/10/09 00:40:45;;;;;;;9.35;8.43;;;;;;;16.58;100.00;102006.72;10585112;28;20036;-74
2023/10/09 00:45:46;;;;;;;11.82;7.07;;;;;;;16.61;100.00;102000.81;10585118;28;20152;-72
2023/10/09 00:50:52;;;;;;;10.73;7.57;;;;;;;16.66;100.00;101998.31;10583910;28;20516;-73
2023/10/09 00:55:56;;;;;;;19.25;8.90;;;;;;;16.75;100.00;102002.50;10583692;28;20055;-75
2023/10/09 01:00:59;;;;;;;12.90;6.63;;;;;;;16.87;100.00;101973.47;10584038;27;20043;-73
2023/10/09 01:11:18;;;;;;;9.68;6.15;;;;;;;17.29;100.00;101975.88;10567107;28;20419;-74
2023/10/09 01:16:21;;;;;;;13.48;5.68;;;;;;;17.35;100.00;101970.38;10581761;28;20070;-73
2023/10/09 01:21:26;;;;;;;10.25;5.88;;;;;;;17.40;100.00;101951.41;10585090;28;20142;-74
2023/10/09 01:26:26;;;;;;;9.07;5.15;;;;;;;17.43;100.00;101953.72;10566048;28;20423;-73
2023/10/09 01:31:27;;;;;;;11.35;6.45;;;;;;;17.46;100.00;101941.50;10582510;28;20085;-74
2023/10/09 01:36:34;;;;;;;10.20;7.05;;;;;;;17.39;100.00;101927.84;10585078;28;20043;-74
2023/10/09 01:41:34;;;;;;;9.10;6.32;;;;;;;17.46;100.00;101941.50;10601243;27;20084;-73
2023/10/09 01:46:34;;;;;;;9.32;6.18;;;;;;;17.42;100.00;101932.03;10582218;28;20035;-74
2023/10/09 01:51:36;;;;;;;14.50;5.55;;;;;;;17.37;100.00;101924.47;10588759;28;20031;-73
2023/10/09 01:56:37;;;;;;;9.65;5.22;;;;;;;17.31;100.00;101921.78;10583356;28;20388;-74
2023/10/09 02:01:42;;;;;;;6.03;4.65;;;;;;;17.33;100.00;101934.19;10580373;28;20032;-73
2023/10/09 02:06:42;;;;;;;5.45;4.60;;;;;;;17.32;100.00;101945.34;10580166;28;20489;-73
2023/10/09 02:11:45;;;;;;;10.25;6.40;;;;;;;17.30;100.00;101925.56;10563862;28;20035;-72
2023/10/09 02:17:02;;;;;;;8.45;5.90;;;;;;;17.31;100.00;101919.03;10580997;28;20510;-73
2023/10/09 02:22:12;;;;;;;;;;;;;;;17.26;100.00;101919.69;10582719;28;20070;-72
2023/10/09 02:27:15;;;;;;;16.35;5.60;;;;;;;17.25;100.00;101931.69;10579859;28;19920;-72
2023/10/09 02:32:25;;;;;;;8.32;5.40;;;;;;;17.22;100.00;101925.81;10580439;28;20092;-73
2023/10/09 02:37:27;;;;;;;10.43;6.50;;;;;;;17.25;100.00;101925.38;10581853;28;20036;-74
2023/10/09 02:42:28;;;;;;;7.57;5.70;;;;;;;17.20;100.00;101893.19;10580787;28;20370;-73
2023/10/09 02:47:37;;;;;;;11.68;7.07;;;;;;;17.29;100.00;101907.44;10578660;28;20069;-73
2023/10/09 02:52:41;;;;;;;9.25;6.95;;;;;;;17.23;100.00;101902.84;10581036;28;20082;-72
2023/10/09 02:57:43;;;;;;;6.25;5.45;;;;;;;17.20;100.00;101904.97;10562917;28;20032;-75
2023/10/09 03:02:46;;;;;;;10.35;5.88;;;;;;;17.23;100.00;101886.41;10596734;28;20051;-73
2023/10/09 03:07:48;;;;;;;14.40;6.60;;;;;;;17.23;100.00;101890.03;10580138;28;20027;-72
2023/10/09 03:12:52;;;;;;;7.40;6.70;;;;;;;17.17;100.00;101871.72;10578916;28;20099;-74
2023/10/09 03:17:53;;;;;;;8.05;6.85;;;;;;;17.20;100.00;101887.72;10577585;28;20051;-73
2023/10/09 03:22:54;;;;;;;7.20;5.72;;;;;;;17.19;100.00;101886.84;10584471;28;20054;-73
2023/10/09 03:27:56;;;;;;;8.70;7.15;;;;;;;17.22;100.00;101912.13;10579533;28;20059;-73
2023/10/09 03:32:56;;;;;;;8.95;6.35;;;;;;;17.28;100.00;101925.78;10579047;28;20043;-72
2023/10/09 03:38:02;;;;;;;12.93;7.53;;;;;;;17.33;100.00;101927.88;10581557;28;20437;-71
2023/10/09 03:43:04;;;;;;;17.67;7.60;;;;;;;17.33;100.00;101939.66;10585562;28;20027;-72
2023/10/09 03:53:12;;;;;;;8.55;5.93;;;;;;;17.37;100.00;101905.31;10586782;28;20079;-73
2023/10/09 03:58:14;;;;;;;11.23;7.05;;;;;;;17.41;100.00;101922.97;10570544;28;20040;-72
2023/10/09 04:03:15;;;;;;;20.25;6.50;;;;;;;17.36;100.00;101919.22;10588990;28;20042;-73
2023/10/09 04:08:29;;;;;;;17.55;6.30;;;;;;;17.38;100.00;101919.84;10586671;28;20401;-72
2023/10/09 04:13:34;;;;;;;24.00;7.60;;;;;;;17.43;100.00;101885.28;10590971;28;20032;-73
2023/10/09 04:18:38;;;;;;;12.70;7.28;;;;;;;17.54;100.00;101888.38;10584716;28;20413;-73
2023/10/09 04:28:57;;;;;;;7.07;6.40;;;;;;;17.66;100.00;101878.38;10584827;28;20167;-74
2023/10/09 04:44:35;;;;;;;14.57;6.13;;;;;;;17.66;100.00;101916.75;10584270;28;20447;-73
2023/10/09 04:50:01;;;;;;;12.50;5.93;;;;;;;17.67;100.00;101912.94;10584237;28;20040;-73
2023/10/09 04:55:14;;;;;;;7.25;5.22;;;;;;;17.65;100.00;101913.16;10585502;28;20047;-73
2023/10/09 05:11:00;;;;;;;9.07;5.60;;;;;;;17.77;100.00;101932.53;10569174;28;20413;-73
2023/10/09 05:16:02;;;;;;;8.95;5.90;;;;;;;17.75;100.00;101936.50;10570956;27;20438;-75
2023/10/09 05:36:50;;;;;;;13.02;7.07;;;;;;;17.85;100.00;101925.94;10580792;28;20031;-71
2023/10/09 06:08:26;;;;;;;7.68;5.90;;;;;;;17.63;100.00;101900.75;10580731;28;20392;-73
2023/10/09 06:13:37;;;;;;;32.42;6.57;;;;;;;17.57;100.00;101871.50;10580398;28;20361;-73
2023/10/09 06:18:41;;;;;;;16.75;6.30;;;;;;;17.69;100.00;101921.78;10579771;28;20062;-71
2023/10/09 06:24:09;;;;;;;12.30;8.07;;;;;;;17.71;100.00;101902.38;10578491;28;20031;-72
2023/10/09 06:29:16;;;;;;;9.25;6.22;;;;;;;17.80;100.00;101917.50;10579931;28;20493;-74
2023/10/09 06:34:18;;;;;;;10.95;6.85;;;;;;;17.80;100.00;101951.22;10596891;27;20108;-71
2023/10/09 06:44:53;;;;;;;13.02;6.32;;;;;;;17.89;100.00;101949.91;10588102;28;20466;-74
2023/10/09 06:55:19;;;;;;;17.20;6.40;;;;;;;18.07;100.00;101929.97;10504734;28;20134;-76
2023/10/09 07:00:51;;;;;;;9.88;7.43;;;;;;;18.22;100.00;101943.38;10581273;28;20031;-77
2023/10/09 07:06:23;;;;;;;17.38;6.25;;;;;;;18.27;100.00;101934.47;10583365;28;20420;-78
2023/10/09 07:11:21;;;;;;;8.35;6.15;;;;;;;18.30;100.00;101904.69;10507422;27;20052;-80
2023/10/09 07:16:28;;;;;;;7.13;5.72;;;;;;;18.36;100.00;101920.25;10605255;27;20062;-76
2023/10/09 07:21:28;;;;;;;13.52;7.45;;;;;;;18.38;100.00;101919.19;10588873;28;20135;-78
2023/10/09 07:26:47;;;;;;;9.63;5.53;;;;;;;18.50;100.00;101917.38;10530318;27;20054;-77
2023/10/09 07:31:57;;;;;;;14.25;5.68;;;;;;;18.52;100.00;101916.09;10580239;28;20044;-78
2023/10/09 07:36:57;;;;;;;14.38;5.72;;;;;;;18.58;100.00;101909.72;10591682;28;20534;-78
2023/10/09 07:42:15;;;;;;;8.25;5.40;;;;;;;18.70;100.00;101900.75;10592628;27;20040;-76
2023/10/09 07:47:22;;;;;;;13.73;5.85;;;;;;;18.85;100.00;101909.44;10484964;27;20053;-77
2023/10/09 07:52:23;;;;;;;14.40;6.05;;;;;;;18.98;100.00;101908.47;10577885;28;20044;-76
2023/10/09 07:57:29;;;;;;;9.45;6.43;;;;;;;19.28;100.00;101898.38;10516761;28;20051;-79
2023/10/09 08:02:32;;;;;;;13.93;6.33;;;;;;;19.85;100.00;101891.72;10588195;27;20071;-73
2023/10/09 08:07:36;;;;;;;10.93;7.63;;;;;;;20.06;100.00;101901.28;10586314;28;20039;-72
2023/10/09 08:12:57;;;;;;;7.18;5.80;;;;;;;20.05;100.00;101918.88;10601355;27;20139;-74
2023/10/09 08:18:09;;;;;;;14.60;6.82;;;;;;;20.25;100.00;101951.56;10585327;28;20035;-74
2023/10/09 08:23:22;;;;;;;10.27;6.45;;;;;;;20.60;100.00;101973.63;10584500;28;20130;-75
2023/10/09 08:38:26;;;;;;;8.02;7.22;;;;;;;21.47;100.00;101990.19;10584941;27;20043;-73
2023/10/09 08:43:30;;;;;;;9.85;5.15;;;;;;;21.71;100.00;101992.91;10583387;28;20491;-73
2023/10/09 08:48:31;;;;;;;7.30;5.85;;;;;;;21.88;100.00;102015.84;10567413;28;20157;-76
2023/10/09 08:53:33;;;;;;;15.88;5.47;;;;;;;22.02;100.00;102028.28;10584054;28;20119;-73
2023/10/09 08:58:37;;;;;;;8.20;5.93;;;;;;;21.83;100.00;102035.91;10583953;28;20036;-74
2023/10/09 09:03:43;;;;;;;25.58;5.50;;;;;;;21.74;100.00;102029.09;10566217;28;20019;-73
2023/10/09 09:08:44;;;;;;;;;;;;;;;22.02;100.00;102039.31;10585989;28;20046;-73
2023/10/09 09:13:48;;;;;;;13.38;6.97;;;;;;;22.16;100.00;102028.81;10592310;28;19911;-73
2023/10/09 09:18:51;;;;;;;5.88;5.25;;;;;;;21.83;100.00;102041.41;10587808;28;20030;-74
2023/10/09 09:24:00;;;;;;;6.20;4.88;;;;;;;21.89;100.00;102047.00;10583667;28;20020;-72
2023/10/09 09:29:03;;;;;;;4.85;4.45;;;;;;;22.26;100.00;102041.97;10581510;28;20482;-74
2023/10/09 09:34:16;;;;;;;7.15;4.97;;;;;;;22.55;100.00;102041.91;10564074;28;20458;-72
2023/10/09 09:39:19;;;;;;;4.55;3.88;;;;;;;22.58;100.00;102035.91;10581514;28;20052;-74
2023/10/09 09:44:21;;;;;;;9.10;5.10;;;;;;;22.57;100.00;102034.22;10598432;27;20040;-75
2023/10/09 09:49:22;;;;;;;5.63;4.32;;;;;;;22.58;100.00;102036.72;10581301;28;20479;-72
2023/10/09 09:54:24;;;;;;;11.82;5.03;;;;;;;22.47;100.00;102044.00;10563719;28;20029;-72
2023/10/09 09:59:27;;;;;;;7.32;4.85;;;;;;;22.57;100.00;102043.34;10582327;27;20043;-73
2023/10/09 10:04:29;;;;;;;5.13;4.47;;;;;;;22.35;100.00;102037.72;10581750;28;20040;-72
2023/10/09 10:09:40;;;;;;;12.68;6.05;;;;;;;22.11;100.00;102036.97;10580300;28;20449;-73
2023/10/09 10:14:57;;;;;;;8.27;5.55;;;;;;;22.20;100.00;102040.19;10581640;28;20028;-74
2023/10/09 10:25:41;;;;;;;6.65;5.22;;;;;;;23.21;100.00;102035.53;10580374;28;20036;-73
2023/10/09 10:30:46;;;;;;;8.45;5.60;;;;;;;23.94;100.00;102031.78;10584465;28;20471;-74
2023/10/09 10:35:46;;;;;;;7.72;6.75;;;;;;;23.89;94.80;102040.84;10581363;28;20032;-73
2023/10/09 10:40:50;;;;;;;11.55;5.53;;;;;;;23.55;98.13;102043.75;10597377;27;20034;-78
2023/10/09 10:45:50;;;;;;;10.90;5.25;;;;;;;23.58;95.40;102050.66;10582669;28;20085;-76
2023/10/09 10:50:58;;;;;;;7.18;5.05;;;;;;;23.73;98.55;102047.28;10583386;28;20543;-79
2023/10/09 10:56:34;;;;;;;5.53;4.95;;;;;;;23.76;100.00;102047.63;10568056;28;20035;-79
2023/10/09 11:01:24;;;;;;;5.50;4.40;;;;;;;24.12;100.00;102051.63;10581671;28;20050;-79
2023/10/09 11:06:37;;;;;;;10.80;5.88;;;;;;;24.47;98.23;102030.13;10552618;28;20035;-73
2023/10/09 11:11:46;;;;;;;6.45;5.43;;;;;;;24.67;95.43;102038.59;10566149;28;20032;-77
2023/10/09 11:16:47;;;;;;;7.70;4.38;;;;;;;24.01;91.52;102044.31;10583333;28;20035;-76
2023/10/09 11:21:53;;;;;;;8.32;4.78;;;;;;;23.71;100.00;102053.09;10563510;28;20032;-79
2023/10/09 11:26:55;;;;;;;13.48;6.22;;;;;;;24.61;100.00;102047.16;10589085;28;20118;-78
2023/10/09 11:32:05;;;;;;;7.18;5.05;;;;;;;25.36;92.65;102050.72;10603447;28;20064;-77
2023/10/09 11:37:10;;;;;;;8.13;4.97;;;;;;;25.64;95.07;102055.03;10570495;28;20032;-78
2023/10/09 11:42:11;;;;;;;12.05;5.28;;;;;;;24.67;89.95;102044.16;10587317;28;20039;-78
2023/10/09 11:52:37;;;;;;;7.50;4.65;;;;;;;23.31;98.94;102031.25;10585321;28;20124;-80
2023/10/09 11:57:38;;;;;;;5.85;5.30;;;;;;;22.98;100.00;102047.63;10582558;28;20550;-80
2023/10/09 12:02:43;;;;;;;4.22;3.90;;;;;;;22.83;100.00;102039.06;10588205;28;20050;-79
2023/10/09 12:07:53;;;;;;;5.40;4.53;;;;;;;22.78;100.00;102024.34;10589912;28;20062;-79
2023/10/09 12:12:57;;;;;;;8.27;5.95;;;;;;;22.81;100.00;102030.19;10588478;27;20099;-79
2023/10/09 12:17:58;;;;;;;9.88;4.57;;;;;;;23.02;100.00;102036.09;10587787;28;20032;-79
2023/10/09 12:22:59;;;;;;;8.88;5.85;;;;;;;23.15;100.00;102033.78;10556554;28;20030;-79
2023/10/09 12:28:01;;;;;;;7.20;5.38;;;;;;;23.03;97.47;102030.28;10589638;28;20174;-79
2023/10/09 12:33:02;;;;;;;5.15;4.68;;;;;;;22.77;98.27;102023.50;10587753;28;20039;-79
2023/10/09 12:38:08;;;;;;;8.55;6.22;;;;;;;22.77;100.00;102029.03;10586908;28;20028;-78
2023/10/09 12:43:19;;;;;;;8.13;5.15;;;;;;;22.60;100.00;102022.69;10583439;28;20304;-74
2023/10/09 12:48:19;;;;;;;9.07;5.35;;;;;;;22.45;100.00;102035.13;10584486;28;20035;-76
2023/10/09 12:53:20;;;;;;;9.32;5.88;;;;;;;22.36;100.00;102050.44;10587376;28;20104;-75
2023/10/09 12:58:21;;;;;;;12.57;6.05;;;;;;;22.29;100.00;102028.50;10589346;28;20035;-76
2023/10/09 13:03:21;;;;;;;9.80;5.35;;;;;;;22.39;100.00;102027.00;10583380;28;20063;-77
2023/10/09 13:08:35;;;;;;;8.23;5.32;;;;;;;22.50;100.00;102024.19;10582840;27;20126;-75
2023/10/09 13:13:42;;;;;;;8.98;5.38;;;;;;;22.71;100.00;102036.41;10566645;28;20503;-76
2023/10/09 13:18:49;;;;;;;18.13;6.25;;;;;;;22.74;100.00;102030.38;10581383;28;20119;-75
2023/10/09 13:23:50;;;;;;;14.60;5.97;;;;;;;23.07;100.00;102023.19;10597776;27;20069;-78
2023/10/09 13:28:52;;;;;;;7.05;4.88;;;;;;;23.36;100.00;102023.03;10584647;28;20059;-76
2023/10/09 13:33:55;;;;;;;8.45;5.90;;;;;;;23.58;100.00;102009.19;10584896;28;20067;-76
2023/10/09 13:39:19;;;;;;;17.80;7.25;;;;;;;23.62;100.00;102021.44;10531228;27;20044;-71
2023/10/09 13:44:21;;;;;;;7.32;4.93;;;;;;;23.49;96.68;102017.13;10597515;27;20135;-71
2023/10/09 13:49:22;;;;;;;7.68;6.05;;;;;;;23.93;100.00;102013.50;10580502;28;20036;-71
2023/10/09 13:54:39;;;;;;;5.97;5.13;;;;;;;24.02;100.00;102010.00;10579990;28;20052;-71
2023/10/09 13:59:49;;;;;;;;;;;;;;;23.82;95.16;102018.09;10579274;28;20048;-70
2023/10/09 14:04:51;;;;;;;9.63;5.70;;;;;;;23.47;100.00;102024.00;10581223;28;19922;-79
2023/10/09 14:09:55;;;;;;;13.35;5.97;;;;;;;23.47;100.00;102032.28;10587350;28;20088;-78
2023/10/09 14:14:55;;;;;;;11.50;5.72;;;;;;;23.22;99.88;102014.25;10600193;28;20067;-78
2023/10/09 14:20:25;;;;;;;11.60;5.05;;;;;;;22.90;99.66;102017.63;10596733;28;20046;-77
2023/10/09 14:25:20;;;;;;;7.18;5.07;;;;;;;22.15;100.00;102015.25;10584359;28;20043;-77
2023/10/09 14:30:30;;;;;;;7.07;6.30;;;;;;;21.83;100.00;102018.50;10582508;28;20109;-76
2023/10/09 14:35:32;;;;;;;8.48;4.82;;;;;;;21.67;100.00;102013.78;10582969;28;20466;-76
2023/10/09 14:40:33;;;;;;;7.05;6.20;;;;;;;21.55;100.00;102016.56;10561928;28;20058;-74
2023/10/09 14:45:36;;;;;;;16.85;6.25;;;;;;;21.39;100.00;102022.84;10527993;27;20110;-74
2023/10/09 14:50:38;;;;;;;6.93;5.40;;;;;;;21.16;100.00;102018.19;10578941;28;20168;-74
2023/10/09 14:55:39;;;;;;;8.85;5.20;;;;;;;21.35;100.00;102005.97;10581581;28;20088;-74
2023/10/09 15:00:46;;;;;;;7.55;6.30;;;;;;;21.52;100.00;102001.34;10579847;28;20028;-73
2023/10/09 15:05:46;;;;;;;7.10;5.18;;;;;;;21.40;100.00;101995.03;10580077;28;20028;-74
2023/10/09 15:10:47;;;;;;;13.55;6.35;;;;;;;21.16;100.00;101993.38;10580792;28;20085;-73
2023/10/09 15:15:50;;;;;;;15.05;5.07;;;;;;;21.03;100.00;102009.06;10579818;28;20088;-75
2023/10/09 15:20:51;;;;;;;5.45;4.95;;;;;;;21.08;100.00;102006.41;10583693;28;20047;-76
2023/10/09 15:25:52;;;;;;;22.15;7.82;;;;;;;21.02;100.00;102018.41;10597938;28;20054;-73
2023/10/09 15:30:52;;;;;;;8.77;7.57;;;;;;;20.90;100.00;102012.09;10595710;28;20056;-75
2023/10/09 15:35:53;;;;;;;19.90;7.65;;;;;;;20.80;100.00;102018.16;10584420;28;20072;-75
2023/10/09 15:40:53;;;;;;;7.30;6.53;;;;;;;20.63;100.00;102020.78;10590885;27;20044;-74
2023/10/09 15:45:54;;;;;;;16.55;7.40;;;;;;;20.47;100.00;102026.94;10588039;28;20081;-73
2023/10/09 15:50:54;;;;;;;8.40;6.25;;;;;;;20.37;100.00;102015.69;10585032;28;20043;-74
2023/10/09 15:55:57;;;;;;;24.73;8.63;;;;;;;20.33;100.00;102022.75;10587277;28;20032;-74
2023/10/09 16:00:58;;;;;;;9.07;6.43;;;;;;;20.18;100.00;102028.66;10587317;28;20035;-76
2023/10/09 16:05:59;;;;;;;21.45;7.95;;;;;;;20.03;100.00;102020.84;10586535;28;20043;-74
2023/10/09 16:11:00;;;;;;;9.68;7.38;;;;;;;20.06;100.00;102027.78;10584712;28;20042;-74
2023/10/09 16:16:00;;;;;;;9.00;5.85;;;;;;;19.98;100.00;102032.53;10567520;28;20454;-75
2023/10/09 16:21:04;;;;;;;9.43;5.88;;;;;;;19.91;100.00;102036.44;10584531;28;20047;-76
2023/10/09 16:26:06;;;;;;;11.73;6.53;;;;;;;19.78;100.00;102040.19;10584435;28;20058;-72
2023/10/09 16:31:13;;;;;;;7.97;5.78;;;;;;;19.69;100.00;102061.69;10584109;28;20071;-76
2023/10/09 16:36:15;;;;;;;8.70;6.65;;;;;;;19.66;100.00;102059.41;10587237;28;20034;-75
2023/10/09 16:41:16;;;;;;;16.42;6.63;;;;;;;19.59;100.00;102055.00;10585423;28;20100;-74
2023/10/09 16:46:17;;;;;;;8.60;6.55;;;;;;;19.58;100.00;102056.91;10567348;28;20028;-73
2023/10/09 16:51:21;;;;;;;10.93;7.53;;;;;;;19.54;100.00;102060.34;10566669;28;20089;-75
2023/10/09 16:56:22;;;;;;;10.20;6.03;;;;;;;19.52;100.00;102055.06;10583825;28;20040;-73
2023/10/09 17:01:24;;;;;;;17.58;7.75;;;;;;;19.49;100.00;102056.38;10565899;28;20398;-73
2023/10/09 17:06:28;;;;;;;11.38;6.57;;;;;;;19.49;100.00;102055.53;10582462;28;20036;-76
2023/10/09 17:11:28;;;;;;;25.52;7.47;;;;;;;19.47;100.00;102064.03;10583084;28;20099;-75
2023/10/09 17:16:29;;;;;;;17.55;6.60;;;;;;;19.41;100.00;102056.69;10584529;28;20053;-72
2023/10/09 17:21:35;;;;;;;10.63;6.50;;;;;;;19.38;100.00;102064.56;10584297;28;20036;-74
2023/10/09 17:26:38;;;;;;;10.48;6.38;;;;;;;19.35;100.00;102059.50;10600126;27;20043;-77
2023/10/09 17:31:42;;;;;;;23.40;6.90;;;;;;;19.32;100.00;102051.72;10587406;28;20517;-74
2023/10/09 17:36:42;;;;;;;34.45;6.40;;;;;;;19.27;100.00;102064.25;10581284;28;20032;-73
2023/10/09 17:41:43;;;;;;;9.13;6.97;;;;;;;19.21;100.00;102050.59;10582643;28;20131;-75
2023/10/09 17:46:43;;;;;;;8.80;5.63;;;;;;;19.13;100.00;102045.38;10580930;28;20056;-72
2023/10/09 17:51:43;;;;;;;17.75;8.15;;;;;;;18.99;100.00;102048.25;10581213;28;20481;-73
2023/10/09 17:56:44;;;;;;;28.23;7.18;;;;;;;18.76;100.00;102059.88;10582105;28;20047;-72
2023/10/09 18:01:45;;;;;;;12.02;6.85;;;;;;;18.54;100.00;102058.53;10580891;28;20065;-75
2023/10/09 18:06:48;;;;;;;15.82;8.50;;;;;;;18.36;100.00;102059.28;10582139;28;20047;-74
2023/10/09 18:11:48;;;;;;;16.23;7.00;;;;;;;18.37;100.00;102080.16;10581561;28;20059;-73
2023/10/09 18:16:49;;;;;;;12.25;7.75;;;;;;;18.42;100.00;102079.50;10581644;28;20063;-74
2023/10/09 18:21:50;;;;;;;18.40;8.40;;;;;;;18.55;100.00;102080.25;10580629;28;20039;-75
2023/10/09 18:26:51;;;;;;;11.13;7.88;;;;;;;18.63;100.00;102081.84;10582863;28;20324;-73
2023/10/09 18:31:51;;;;;;;14.05;6.95;;;;;;;18.61;100.00;102086.75;10584537;28;20051;-73
2023/10/09 18:36:52;;;;;;;10.15;7.10;;;;;;;18.49;100.00;102086.63;10587478;28;20084;-73
2023/10/09 18:41:53;;;;;;;13.15;7.18;;;;;;;18.42;100.00;102085.00;10575170;28;20034;-73
2023/10/09 18:46:56;;;;;;;13.30;5.53;;;;;;;18.30;100.00;102088.41;10581103;28;20032;-72
2023/10/09 18:51:56;;;;;;;17.30;6.90;;;;;;;18.15;100.00;102085.13;10579835;28;20035;-77
2023/10/09 18:56:57;;;;;;;8.65;6.50;;;;;;;18.07;100.00;102085.38;10580226;28;20051;-75
2023/10/09 19:01:57;;;;;;;9.60;6.88;;;;;;;17.97;100.00;102085.88;10581539;28;20032;-76
2023/10/09 19:06:58;;;;;;;18.60;6.57;;;;;;;18.01;100.00;102099.97;10581536;28;20108;-75
2023/10/09 19:11:58;;;;;;;8.75;7.35;;;;;;;18.13;100.00;102099.06;10592814;28;20494;-76
2023/10/09 19:16:59;;;;;;;15.98;8.43;;;;;;;18.26;100.00;102106.38;10593359;28;20063;-73
2023/10/09 19:22:00;;;;;;;10.60;7.68;;;;;;;18.33;100.00;102106.34;10591093;28;20538;-74
2023/10/09 19:27:00;;;;;;;16.95;7.05;;;;;;;18.24;100.00;102096.69;10594491;28;20055;-73
2023/10/09 19:32:01;;;;;;;11.00;6.93;;;;;;;18.21;100.00;102100.69;10591746;28;20376;-74
2023/10/09 19:37:01;;;;;;;12.27;6.18;;;;;;;18.26;100.00;102094.56;10591421;28;20039;-73
2023/10/09 19:42:02;;;;;;;10.02;5.80;;;;;;;18.26;100.00;102103.63;10589841;28;20085;-75
2023/10/09 19:47:02;;;;;;;11.48;6.38;;;;;;;18.23;100.00;102103.22;10588551;28;20382;-72
2023/10/09 19:52:05;;;;;;;7.88;5.00;;;;;;;18.25;100.00;102101.09;10586755;28;20119;-72
2023/10/09 19:57:07;;;;;;;10.75;7.43;;;;;;;18.21;100.00;102092.47;10587364;28;20119;-72
2023/10/09 20:02:08;;;;;;;7.07;6.38;;;;;;;18.18;100.00;102083.84;10585646;28;20089;-73
2023/10/09 20:07:11;;;;;;;11.32;6.07;;;;;;;18.20;100.00;102077.09;10585469;28;20085;-72
2023/10/09 20:12:15;;;;;;;12.15;7.63;;;;;;;18.19;100.00;102080.03;10586309;28;20374;-72
2023/10/09 20:17:15;;;;;;;8.05;7.18;;;;;;;18.17;100.00;102091.25;10586305;28;20023;-71
2023/10/09 20:22:17;;;;;;;19.70;7.45;;;;;;;18.08;100.00;102081.59;10586956;28;20457;-75
2023/10/09 20:27:19;;;;;;;7.68;6.60;;;;;;;18.03;100.00;102082.25;10585552;28;20510;-73
2023/10/09 20:32:20;;;;;;;9.48;6.90;;;;;;;18.05;100.00;102085.59;10568781;28;20118;-74
2023/10/09 20:37:20;;;;;;;15.82;7.40;;;;;;;18.11;100.00;102081.16;10602073;27;20024;-72
2023/10/09 20:42:21;;;;;;;13.55;7.70;;;;;;;18.09;100.00;102089.59;10584348;28;20035;-74
2023/10/09 20:47:25;;;;;;;8.13;7.28;;;;;;;17.98;100.00;102097.66;10584524;28;20032;-73
2023/10/09 20:52:27;;;;;;;16.58;9.25;;;;;;;17.94;100.00;102094.53;10586128;28;20085;-74
2023/10/09 20:57:27;;;;;;;10.00;7.90;;;;;;;17.84;100.00;102089.50;10583852;28;20079;-73
2023/10/09 21:02:28;;;;;;;15.18;9.60;;;;;;;17.83;100.00;102097.91;10584955;28;20197;-75
2023/10/09 21:07:29;;;;;;;15.82;8.85;;;;;;;17.91;100.00;102094.94;10582964;28;20429;-72
2023/10/09 21:12:30;;;;;;;16.52;12.02;;;;;;;17.86;100.00;102094.75;10566847;28;20035;-74
2023/10/09 21:17:30;;;;;;;16.50;11.50;;;;;;;17.81;100.00;102089.94;10565942;28;20055;-74
2023/10/09 21:22:31;;;;;;;21.65;12.43;;;;;;;17.71;100.00;102095.00;10582436;28;20028;-74
2023/10/09 21:27:31;;;;;;;17.35;10.70;;;;;;;17.69;100.00;102096.28;10586676;28;20121;-73
2023/10/09 21:32:39;;;;;;;18.02;11.95;;;;;;;17.70;100.00;102092.47;10584049;28;20070;-72
2023/10/09 21:37:39;;;;;;;13.55;11.27;;;;;;;17.69;100.00;102096.28;10585281;28;20038;-73
2023/10/09 21:42:41;;;;;;;11.07;9.70;;;;;;;17.60;100.00;102093.75;10585296;28;20044;-74
2023/10/09 21:47:42;;;;;;;17.85;11.82;;;;;;;17.44;100.00;102089.56;10582388;28;20039;-72
2023/10/09 21:52:42;;;;;;;14.43;12.05;;;;;;;17.32;100.00;102091.28;10582782;28;20035;-74
2023/10/09 21:57:43;;;;;;;20.45;12.00;;;;;;;17.21;100.00;102089.22;10582347;28;20031;-74
2023/10/09 22:02:47;;;;;;;63.42;33.25;;;;;;;17.18;100.00;102089.63;10580238;28;20035;-73
2023/10/09 22:07:47;;;;;;;34.58;19.23;;;;;;;17.13;100.00;102086.69;10563585;28;20027;-74
2023/10/09 22:12:48;;;;;;;21.75;12.15;;;;;;;17.15;100.00;102095.53;10580670;28;20110;-73
2023/10/09 22:17:48;;;;;;;44.53;26.42;;;;;;;17.19;100.00;102091.31;10580218;28;20123;-73
2023/10/09 22:22:51;;;;;;;26.40;12.90;;;;;;;17.22;100.00;102084.56;10580556;28;20043;-73
2023/10/09 22:27:58;;;;;;;23.05;16.58;;;;;;;17.10;100.00;102081.63;10563354;28;20092;-73
2023/10/09 22:33:12;;;;;;;17.40;11.10;;;;;;;16.87;100.00;102066.50;10580709;28;20371;-74
2023/10/09 22:38:15;;;;;;;22.70;13.05;;;;;;;16.73;100.00;102078.47;10583661;28;20033;-72
2023/10/09 22:43:20;;;;;;;18.85;12.70;;;;;;;16.51;100.00;102066.88;10579536;27;20031;-75
2023/10/09 22:48:26;;;;;;;13.57;11.80;;;;;;;16.37;100.00;102074.22;10580046;28;20477;-74
2023/10/09 22:53:46;;;;;;;21.85;13.60;;;;;;;16.29;100.00;102063.47;10580077;28;20035;-74
2023/10/09 22:58:53;;;;;;;22.88;15.25;;;;;;;16.17;100.00;102059.66;10580613;28;20036;-73
2023/10/09 23:09:32;;;;;;;19.63;12.15;;;;;;;15.96;100.00;102053.28;10367483;28;20084;-73
2023/10/09 23:14:33;;;;;;;17.33;14.10;;;;;;;15.91;100.00;102042.13;10530713;28;20048;-73
2023/10/09 23:24:53;;;;;;;20.83;15.82;;;;;;;15.85;100.00;102026.56;10562393;28;20055;-73
2023/10/09 23:29:53;;;;;;;17.70;15.95;;;;;;;15.86;100.00;102031.00;10578559;28;20050;-72
2023/10/09 23:34:54;;;;;;;33.88;19.25;;;;;;;15.73;100.00;102015.41;10587215;28;20371;-74
2023/10/09 23:39:54;;;;;;;22.23;17.63;;;;;;;15.77;100.00;102027.59;10578164;28;20036;-74
2023/10/09 23:45:04;;;;;;;29.05;20.38;;;;;;;15.70;100.00;102021.28;10594643;28;20043;-73
2023/10/09 23:50:06;;;;;;;29.35;21.63;;;;;;;15.69;100.00;102026.91;10577897;28;20418;-74
2023/10/09 23:55:12;;;;;;;37.13;22.13;;;;;;;15.68;100.00;102028.81;10580415;28;20036;-73
